createdAt,value
2017-10-16T00:02:35.181Z,57.32
2017-10-16T00:17:37.019Z,58.64
2017-10-16T00:32:36.985Z,60.29
2017-10-16T00:47:35.440Z,60.34
2017-10-16T01:02:34.323Z,60.65
2017-10-16T01:17:36.267Z,61.22
2017-10-16T01:32:36.548Z,62.28
2017-10-16T01:47:35.246Z,62.42
2017-10-16T02:02:34.663Z,63.72
2017-10-16T02:17:36.665Z,65.74
2017-10-16T02:32:37.301Z,67.35
2017-10-16T02:47:37.988Z,68.23
2017-10-16T03:02:34.992Z,68.47
2017-10-16T03:17:41.164Z,69.19
2017-10-16T03:32:34.858Z,69.81
2017-10-16T03:47:36.294Z,69.78
2017-10-16T04:02:39.310Z,69.98
2017-10-16T04:17:38.331Z,70.38
2017-10-16T04:32:36.556Z,71.60
2017-10-16T04:47:34.494Z,71.94
2017-10-16T05:02:34.584Z,71.13
2017-10-16T05:17:34.461Z,70.47
2017-10-16T05:32:36.861Z,67.59
2017-10-16T05:47:34.765Z,62.21
2017-10-16T06:02:34.710Z,56.00
2017-10-16T06:17:34.712Z,48.88
2017-10-16T06:32:34.609Z,46.64
2017-10-16T06:47:35.102Z,50.08
2017-10-16T07:02:34.995Z,51.62
2017-10-16T07:17:34.943Z,49.17
2017-10-16T07:32:34.948Z,47.50
2017-10-16T07:47:35.356Z,45.28
2017-10-16T08:02:34.843Z,42.04
2017-10-16T08:17:34.850Z,40.22
2017-10-16T08:32:35.211Z,39.87
2017-10-16T08:47:34.707Z,40.18
2017-10-16T09:02:35.095Z,40.42
2017-10-16T09:17:34.538Z,39.62
2017-10-16T09:32:34.475Z,38.74
2017-10-16T09:47:34.987Z,37.62
2017-10-16T10:02:53.045Z,38.48
2017-10-16T10:17:34.829Z,38.99
2017-10-16T10:32:36.812Z,38.83
2017-10-16T10:47:35.178Z,39.56
2017-10-16T11:02:35.232Z,40.66
2017-10-16T11:17:35.169Z,41.99
2017-10-16T11:32:36.557Z,41.89
2017-10-16T11:47:37.569Z,40.98
2017-10-16T12:02:37.454Z,41.12
2017-10-16T12:17:34.421Z,41.52
2017-10-16T12:32:35.424Z,41.81
2017-10-16T12:47:35.296Z,40.86
2017-10-16T13:02:34.757Z,41.49
2017-10-16T13:17:34.776Z,40.97
2017-10-16T13:32:34.748Z,40.58
2017-10-16T13:47:35.934Z,39.83
2017-10-16T14:02:35.076Z,41.04
2017-10-16T14:17:34.991Z,41.37
2017-10-16T14:32:34.947Z,42.32
2017-10-16T14:47:35.399Z,42.98
2017-10-16T15:02:34.793Z,44.49
2017-10-16T15:17:35.266Z,46.61
2017-10-16T15:32:35.191Z,47.70
2017-10-16T15:47:34.748Z,48.97
2017-10-16T16:02:34.621Z,49.54
2017-10-16T16:17:36.583Z,50.30
2017-10-16T16:32:35.377Z,55.10
2017-10-16T16:47:35.897Z,50.97
2017-10-16T17:02:34.989Z,51.51
2017-10-16T17:17:36.060Z,52.52
2017-10-16T17:32:35.993Z,53.54
2017-10-16T17:47:36.242Z,54.59
2017-10-16T18:02:35.193Z,55.33
2017-10-16T18:17:35.400Z,56.10
2017-10-16T18:32:35.117Z,57.06
2017-10-16T18:47:38.468Z,58.04
2017-10-16T19:02:34.523Z,59.03
2017-10-16T19:17:36.504Z,60.02
2017-10-16T19:32:34.410Z,60.90
2017-10-16T19:47:34.811Z,61.11
2017-10-16T20:02:44.308Z,61.20
2017-10-16T20:17:35.750Z,60.89
2017-10-16T20:32:37.785Z,60.17
2017-10-16T20:47:35.746Z,60.78
2017-10-16T21:02:35.320Z,61.01
2017-10-16T21:17:37.455Z,61.81
2017-10-16T21:32:35.084Z,62.76
2017-10-16T21:47:36.435Z,63.49
2017-10-16T22:02:37.695Z,64.24
2017-10-16T22:17:33.932Z,65.22
2017-10-16T22:32:36.373Z,65.39
2017-10-16T22:47:36.727Z,65.52
2017-10-16T23:02:34.708Z,65.79
2017-10-16T23:17:34.667Z,66.14
2017-10-16T23:32:36.708Z,66.14
2017-10-16T23:47:36.989Z,66.66
